»·PEaware :: UAL681 KSFO-KLAS

UAL681 :: KSFO-KLAS

FLIGHT INFORMATION

Flight Status: Arrived
Operator:
United Airlines
More flights by this operator :: More flights under this callsign
Pilot: Anonymous 15267 (15267)
Aircraft: AIRBUS A320
(A320)
More flights by this aircraft type
Origin: KSFO San Francisco Intl
United States
Destination: KLAS McCarran Intl
United States
More flights between these airports :: More routes between these airports
Route: +SSTIK3 NTELL Q162 ESSAA BTY SUNST4
File this flight plan on PilotEdge
Remarks: / L
Altitude:
(Current/Filed)
37,000ft
Speed:
(Current/Filed)
425kts
Departed: 23-Jan-18 02:46 PM
Arrived: 23-Jan-18 03:55 PM
Distance/Time
Traveled:
359nm/1:09
Distance/Time
To Go:
Arrived

Flight Plot

Page will automatically refresh every two minutes.

Flight plan parsing failed; only flown route is shown


Map Options




Map Legend


Flown Route
Filed Route
Departure Airport
Arrival Airport
Navaid (VOR, NDB)
Fix

Horizontal Profiles

Position Reports

Time Latitude Longitude Heading Altitude Ground
Speed
23-Jan-18 14:30 37.620697 -122.387784 201 18ft 0kts
23-Jan-18 14:31 37.620697 -122.387784 201 18ft 0kts
23-Jan-18 14:32 37.620697 -122.387784 201 18ft 0kts
23-Jan-18 14:33 37.620697 -122.387784 201 18ft 0kts
23-Jan-18 14:34 37.620697 -122.387784 201 18ft 0kts
23-Jan-18 14:35 37.620697 -122.387784 201 18ft 0kts
23-Jan-18 14:36 37.620705 -122.387779 204 18ft 0kts
23-Jan-18 14:37 37.621053 -122.387826 172 18ft 2kts
23-Jan-18 14:38 37.621588 -122.387873 176 18ft 2kts
23-Jan-18 14:39 37.622102 -122.387950 147 18ft 2kts
23-Jan-18 14:40 37.622241 -122.388161 117 18ft 0kts
23-Jan-18 14:41 37.622241 -122.388161 117 18ft 0kts
23-Jan-18 14:42 37.622241 -122.388161 117 18ft 0kts
23-Jan-18 14:43 37.621493 -122.386323 118 18ft 11kts
23-Jan-18 14:44 37.619854 -122.382478 118 18ft 13kts
23-Jan-18 14:45 37.618165 -122.378207 112 18ft 9kts
23-Jan-18 14:46 37.617788 -122.377023 112 18ft 14kts
23-Jan-18 14:47 37.614733 -122.373505 207 18ft 17kts
23-Jan-18 14:48 37.610328 -122.376423 207 18ft 18kts
23-Jan-18 14:49 37.607462 -122.378842 294 18ft 0kts
23-Jan-18 14:50 37.607462 -122.378842 294 18ft 0kts
23-Jan-18 14:51 37.607470 -122.378867 294 18ft 1kts
23-Jan-18 14:52 37.614998 -122.375300 29 18ft 121kts
23-Jan-18 14:53 37.657244 -122.362063 3 1865ft 188kts
23-Jan-18 14:54 37.710324 -122.391141 285 3956ft 267kts
23-Jan-18 14:55 37.669379 -122.454880 185 7145ft 277kts
23-Jan-18 14:56 37.591662 -122.463216 182 10300ft 286kts
23-Jan-18 14:57 37.506141 -122.468430 166 11984ft 337kts
23-Jan-18 14:58 37.439075 -122.387291 129 14648ft 345kts
23-Jan-18 14:59 37.398573 -122.274548 105 16577ft 376kts
23-Jan-18 15:00 37.372057 -122.139987 104 17742ft 413kts
23-Jan-18 15:01 37.343756 -121.998061 104 19434ft 425kts
23-Jan-18 15:02 37.314458 -121.852414 104 20971ft 438kts
23-Jan-18 15:03 37.283744 -121.700911 104 22075ft 456kts
23-Jan-18 15:04 37.251944 -121.545047 104 23328ft 467kts
23-Jan-18 15:05 37.219175 -121.385651 104 24497ft 476kts
23-Jan-18 15:06 37.187095 -121.230771 105 25240ft 491kts
23-Jan-18 15:07 37.151910 -121.062158 105 25697ft 508kts
23-Jan-18 15:08 37.115832 -120.890463 105 26561ft 511kts
23-Jan-18 15:09 37.079393 -120.718457 105 27565ft 511kts
23-Jan-18 15:10 37.042872 -120.547450 105 28572ft 510kts
23-Jan-18 15:11 37.005953 -120.375906 104 29578ft 510kts
23-Jan-18 15:12 36.969475 -120.207692 105 30509ft 510kts
23-Jan-18 15:13 36.932210 -120.037127 105 31432ft 509kts
23-Jan-18 15:14 36.912944 -119.864756 77 32257ft 505kts
23-Jan-18 15:15 36.960761 -119.703127 63 33094ft 498kts
23-Jan-18 15:16 37.012786 -119.543716 63 33901ft 497kts
23-Jan-18 15:17 37.064402 -119.384434 63 34672ft 496kts
23-Jan-18 15:18 37.114623 -119.228621 64 35308ft 495kts
23-Jan-18 15:19 37.165308 -119.070517 64 35936ft 494kts
23-Jan-18 15:20 37.216006 -118.911500 64 36506ft 493kts
23-Jan-18 15:21 37.266418 -118.752410 65 36992ft 493kts
23-Jan-18 15:22 37.289381 -118.582997 81 37351ft 499kts
23-Jan-18 15:23 37.305167 -118.409924 81 37349ft 498kts
23-Jan-18 15:24 37.320176 -118.242893 81 37350ft 499kts
23-Jan-18 15:25 37.335472 -118.069808 81 37352ft 499kts
23-Jan-18 15:26 37.349338 -117.897036 88 37358ft 501kts
23-Jan-18 15:27 37.335746 -117.723389 95 37360ft 502kts
23-Jan-18 15:28 37.320217 -117.550597 94 37420ft 497kts
23-Jan-18 15:29 37.304605 -117.379924 94 37381ft 494kts
23-Jan-18 15:30 37.249616 -117.230147 128 37358ft 496kts
23-Jan-18 15:31 37.166185 -117.093428 128 37346ft 494kts
23-Jan-18 15:32 37.082553 -116.958096 133 35735ft 491kts
23-Jan-18 15:33 36.971452 -116.865329 153 30864ft 483kts
23-Jan-18 15:34 36.857230 -116.786498 151 26859ft 456kts
23-Jan-18 15:35 36.758090 -116.687474 129 26056ft 469kts
23-Jan-18 15:36 36.673550 -116.566440 129 25688ft 458kts
23-Jan-18 15:37 36.589379 -116.446898 130 25247ft 461kts
23-Jan-18 15:38 36.508587 -116.332568 130 24592ft 458kts
23-Jan-18 15:39 36.425453 -116.215331 131 23378ft 446kts
23-Jan-18 15:40 36.343956 -116.100802 131 20883ft 443kts
23-Jan-18 15:41 36.266774 -115.992621 131 17891ft 399kts
23-Jan-18 15:42 36.200009 -115.895981 116 16333ft 339kts
23-Jan-18 15:43 36.165334 -115.790301 110 15632ft 327kts
23-Jan-18 15:44 36.137612 -115.704173 110 14389ft 321kts
23-Jan-18 15:45 36.100126 -115.588041 111 12978ft 301kts
23-Jan-18 15:46 36.069798 -115.493927 111 11845ft 283kts
23-Jan-18 15:47 36.046564 -115.420944 111 11041ft 271kts
23-Jan-18 15:48 36.025113 -115.319634 90 10786ft 267kts
23-Jan-18 15:49 36.020716 -115.243391 96 9390ft 265kts
23-Jan-18 15:50 36.015010 -115.152818 93 8504ft 265kts
23-Jan-18 15:51 36.009342 -115.050896 93 8010ft 253kts
23-Jan-18 15:52 36.005335 -114.979085 93 7974ft 242kts
23-Jan-18 15:53 36.000869 -114.901626 92 7443ft 205kts
23-Jan-18 15:54 36.002472 -114.836097 49 6125ft 188kts
23-Jan-18 15:55 36.051840 -114.827085 343 4991ft 187kts
23-Jan-18 15:56 36.073242 -114.883771 275 4992ft 200kts
23-Jan-18 15:57 36.073651 -114.953186 271 4898ft 202kts
23-Jan-18 15:58 36.074180 -115.020510 274 3992ft 197kts
23-Jan-18 15:59 36.073511 -115.083380 274 2855ft 157kts
23-Jan-18 16:00 36.073690 -115.136555 269 2123ft 133kts
23-Jan-18 16:01 36.075215 -115.151171 322 2123ft 21kts
23-Jan-18 16:02 36.077996 -115.149776 98 2123ft 0kts
23-Jan-18 16:03 36.077912 -115.148554 76 2123ft 15kts
23-Jan-18 16:04 36.078271 -115.140891 91 2123ft 21kts
23-Jan-18 16:05 36.080162 -115.139155 313 2123ft 2kts
23-Jan-18 16:06 36.080309 -115.139346 314 2123ft 0kts
23-Jan-18 16:07 36.080309 -115.139346 314 2123ft 0kts

Navigation Log

Ident Type
Flight plan parsing failed, navigation log unavailable